createdAt,value
2022-10-14T00:01:33.144Z,11.27
2022-10-14T00:04:02.034Z,11.29
2022-10-14T00:06:34.424Z,11.24
2022-10-14T00:09:06.178Z,11.23
2022-10-14T00:11:35.927Z,11.25
2022-10-14T00:14:06.888Z,11.26
2022-10-14T00:16:38.145Z,11.21
2022-10-14T00:19:07.389Z,11.23
2022-10-14T00:21:37.010Z,11.17
2022-10-14T00:24:07.083Z,11.23
2022-10-14T00:26:38.904Z,11.21
2022-10-14T00:29:13.182Z,11.20
2022-10-14T00:31:42.522Z,11.16
2022-10-14T00:34:13.454Z,11.12
2022-10-14T00:36:42.297Z,11.13
2022-10-14T00:39:15.855Z,11.19
2022-10-14T00:41:45.733Z,11.16
2022-10-14T00:44:39.435Z,11.13
2022-10-14T00:47:09.596Z,11.11
2022-10-14T00:49:43.715Z,11.13
2022-10-14T00:52:21.125Z,11.12
2022-10-14T00:54:54.913Z,11.12
2022-10-14T00:57:24.944Z,11.11
2022-10-14T00:59:56.774Z,11.10
2022-10-14T01:02:30.894Z,11.08
2022-10-14T01:05:00.505Z,11.07
2022-10-14T01:07:38.313Z,11.07
2022-10-14T01:10:15.425Z,11.06
2022-10-14T01:12:56.377Z,11.07
2022-10-14T01:15:34.463Z,11.08
2022-10-14T01:18:19.360Z,11.06
2022-10-14T01:21:08.825Z,11.05
2022-10-14T01:24:01.468Z,11.06
2022-10-14T01:26:52.776Z,11.05
2022-10-14T01:29:43.573Z,11.06
2022-10-14T01:32:19.147Z,11.04
2022-10-14T01:34:55.145Z,11.06
2022-10-14T01:37:27.867Z,11.06
2022-10-14T01:40:00.926Z,11.06
2022-10-14T01:42:36.416Z,11.09
2022-10-14T01:45:10.417Z,11.08
2022-10-14T01:47:42.906Z,11.10
2022-10-14T01:50:15.666Z,11.12
2022-10-14T01:52:51.007Z,11.11
2022-10-14T01:55:24.357Z,11.10
2022-10-14T01:57:58.017Z,11.10
2022-10-14T02:00:27.499Z,11.02
2022-10-14T02:02:57.625Z,11.14
2022-10-14T02:05:33.501Z,11.14
2022-10-14T02:08:12.340Z,11.15
2022-10-14T02:11:02.098Z,11.17
2022-10-14T02:13:47.589Z,11.17
2022-10-14T02:16:25.665Z,11.20
2022-10-14T02:19:04.003Z,11.24
2022-10-14T02:21:41.443Z,11.23
2022-10-14T02:24:31.596Z,11.29
2022-10-14T02:27:04.686Z,11.30
2022-10-14T02:29:37.817Z,11.33
2022-10-14T02:32:09.224Z,11.35
2022-10-14T02:34:43.736Z,11.39
2022-10-14T02:37:14.450Z,11.41
2022-10-14T02:39:47.737Z,11.42
2022-10-14T02:42:18.119Z,11.43
2022-10-14T02:44:54.755Z,11.43
2022-10-14T02:47:24.068Z,11.37
2022-10-14T02:49:55.498Z,11.47
2022-10-14T02:52:26.057Z,11.49
2022-10-14T02:54:55.354Z,11.50
2022-10-14T02:57:24.654Z,11.53
2022-10-14T02:59:53.357Z,11.54
2022-10-14T03:02:22.149Z,11.55
2022-10-14T03:04:50.979Z,11.55
2022-10-14T03:07:20.966Z,11.57
2022-10-14T03:09:53.584Z,11.62
2022-10-14T03:12:25.888Z,11.65
2022-10-14T03:14:57.927Z,11.68
2022-10-14T03:17:28.404Z,11.68
2022-10-14T03:20:01.876Z,11.65
2022-10-14T03:22:34.279Z,11.74
2022-10-14T03:25:03.112Z,11.76
2022-10-14T03:27:42.785Z,11.76
2022-10-14T03:30:15.598Z,11.75
2022-10-14T03:32:58.812Z,11.80
2022-10-14T03:35:38.474Z,11.80
2022-10-14T03:38:14.157Z,11.87
2022-10-14T03:40:44.006Z,11.88
2022-10-14T03:43:14.945Z,11.89
2022-10-14T03:45:54.294Z,11.90
2022-10-14T03:48:26.017Z,11.91
2022-10-14T03:50:58.500Z,11.93
2022-10-14T03:53:29.519Z,11.95
2022-10-14T03:55:58.868Z,11.94
2022-10-14T03:58:28.008Z,11.96
2022-10-14T04:01:02.880Z,12.00
2022-10-14T04:03:43.068Z,11.99
2022-10-14T04:06:11.867Z,12.02
2022-10-14T04:08:42.536Z,12.01
2022-10-14T04:11:26.859Z,12.05
2022-10-14T04:14:02.799Z,12.06
2022-10-14T04:16:34.166Z,12.08
2022-10-14T04:19:08.213Z,12.05
2022-10-14T04:21:37.187Z,12.05
2022-10-14T04:24:08.613Z,12.04
2022-10-14T04:27:03.726Z,11.89
2022-10-14T04:29:55.337Z,12.05
2022-10-14T04:32:29.495Z,12.00
2022-10-14T04:34:58.303Z,12.08
2022-10-14T04:37:31.716Z,12.06
2022-10-14T04:40:07.414Z,12.08
2022-10-14T04:42:43.240Z,12.08
2022-10-14T04:45:21.947Z,11.78
2022-10-14T04:47:57.785Z,12.05
2022-10-14T04:50:28.332Z,12.07
2022-10-14T04:53:13.290Z,11.98
2022-10-14T04:55:55.894Z,12.08
2022-10-14T04:58:25.423Z,12.09
2022-10-14T05:00:55.337Z,12.10
2022-10-14T05:03:29.536Z,12.11
2022-10-14T05:05:58.924Z,12.11
2022-10-14T05:08:28.027Z,12.07
2022-10-14T05:11:00.473Z,12.10
2022-10-14T05:13:44.444Z,12.06
2022-10-14T05:16:13.213Z,12.06
2022-10-14T05:18:41.967Z,12.02
2022-10-14T05:21:13.143Z,11.96
2022-10-14T05:24:09.070Z,11.65
2022-10-14T05:26:41.954Z,11.94
2022-10-14T05:29:13.686Z,12.00
2022-10-14T05:31:43.276Z,12.02
2022-10-14T05:34:25.350Z,12.00
2022-10-14T05:36:53.974Z,12.04
2022-10-14T05:39:25.074Z,12.06
2022-10-14T05:41:55.344Z,12.06
2022-10-14T05:44:27.379Z,12.08
2022-10-14T05:46:55.986Z,12.05
2022-10-14T05:49:26.983Z,12.07
2022-10-14T05:51:58.673Z,12.06
2022-10-14T05:54:27.757Z,12.11
2022-10-14T05:56:59.936Z,12.18
2022-10-14T05:59:30.066Z,12.18
2022-10-14T06:02:00.909Z,12.21
2022-10-14T06:04:29.900Z,12.27
2022-10-14T06:06:59.955Z,12.26
2022-10-14T06:09:32.828Z,12.28
2022-10-14T06:12:02.934Z,12.37
2022-10-14T06:14:31.771Z,12.38
2022-10-14T06:17:01.407Z,12.42
2022-10-14T06:19:33.815Z,12.40
2022-10-14T06:22:02.546Z,12.52
2022-10-14T06:24:31.264Z,12.54
2022-10-14T06:26:59.825Z,12.59
2022-10-14T06:29:33.026Z,12.64
2022-10-14T06:32:01.769Z,12.66
2022-10-14T06:34:30.435Z,12.67
2022-10-14T06:37:02.391Z,12.64
2022-10-14T06:39:31.394Z,12.69
2022-10-14T06:41:59.944Z,12.69
2022-10-14T06:44:30.860Z,12.74
2022-10-14T06:46:59.475Z,12.76
2022-10-14T06:49:28.157Z,12.53
2022-10-14T06:51:56.657Z,12.88
2022-10-14T06:54:25.339Z,12.90
2022-10-14T06:56:53.907Z,12.90
2022-10-14T06:59:23.019Z,12.93
2022-10-14T07:01:53.299Z,12.91
2022-10-14T07:04:21.877Z,13.00
2022-10-14T07:06:52.086Z,12.98
2022-10-14T07:09:20.877Z,13.04
2022-10-14T07:11:49.367Z,13.09
2022-10-14T07:14:18.137Z,13.17
2022-10-14T07:16:47.920Z,13.19
2022-10-14T07:19:18.051Z,13.22
2022-10-14T07:21:46.817Z,13.16
2022-10-14T07:24:15.358Z,13.33
2022-10-14T07:26:44.451Z,13.33
2022-10-14T07:29:12.967Z,13.36
2022-10-14T07:31:42.212Z,13.50
2022-10-14T07:34:11.313Z,13.52
2022-10-14T07:36:41.640Z,13.59
2022-10-14T07:39:10.415Z,13.60
2022-10-14T07:41:40.285Z,13.66
2022-10-14T07:44:10.363Z,13.68
2022-10-14T07:46:41.312Z,13.71
2022-10-14T07:49:12.884Z,13.74
2022-10-14T07:51:44.054Z,13.76
2022-10-14T07:54:16.472Z,13.74
2022-10-14T07:56:49.330Z,13.78
2022-10-14T07:59:19.223Z,13.81
2022-10-14T08:01:48.683Z,13.82
2022-10-14T08:04:17.674Z,13.79
2022-10-14T08:06:48.770Z,13.86
2022-10-14T08:09:18.472Z,13.87
2022-10-14T08:11:49.091Z,13.91
2022-10-14T08:14:18.473Z,13.62
2022-10-14T08:16:47.163Z,13.94
2022-10-14T08:19:15.925Z,13.95
2022-10-14T08:21:44.771Z,13.97
2022-10-14T08:24:14.714Z,13.99
2022-10-14T08:26:52.077Z,14.03
2022-10-14T08:29:22.706Z,14.07
2022-10-14T08:31:51.753Z,14.04
2022-10-14T08:34:21.406Z,14.07
2022-10-14T08:36:50.497Z,14.11
2022-10-14T08:39:20.874Z,14.13
2022-10-14T08:42:10.738Z,14.17
2022-10-14T08:44:47.089Z,14.26
2022-10-14T08:47:18.041Z,14.29
2022-10-14T08:50:01.858Z,14.38
2022-10-14T08:52:37.703Z,14.47
2022-10-14T08:55:24.781Z,14.52
2022-10-14T08:57:59.433Z,14.58
2022-10-14T09:00:31.416Z,14.59
2022-10-14T09:03:07.663Z,14.62
2022-10-14T09:05:36.680Z,14.65
2022-10-14T09:08:06.796Z,14.65
2022-10-14T09:10:42.290Z,14.67
2022-10-14T09:13:16.992Z,14.69
2022-10-14T09:15:48.061Z,14.70
2022-10-14T09:18:28.379Z,14.67
2022-10-14T09:20:59.871Z,14.70
2022-10-14T09:23:29.599Z,14.71
2022-10-14T09:26:01.037Z,14.71
2022-10-14T09:28:37.236Z,14.69
2022-10-14T09:31:19.702Z,14.73
2022-10-14T09:34:00.499Z,14.81
2022-10-14T09:36:43.113Z,14.88
2022-10-14T09:39:25.046Z,14.90
2022-10-14T09:42:14.760Z,14.93
2022-10-14T09:45:11.273Z,14.96
2022-10-14T09:47:57.316Z,14.90
2022-10-14T09:50:43.799Z,14.95
2022-10-14T09:53:31.283Z,14.94
2022-10-14T09:56:11.661Z,14.97
2022-10-14T09:58:57.312Z,15.04
2022-10-14T10:01:42.743Z,15.07
2022-10-14T10:04:35.113Z,15.12
2022-10-14T10:07:31.320Z,15.18
2022-10-14T10:10:22.903Z,15.15
2022-10-14T10:13:03.681Z,15.15
2022-10-14T10:15:59.656Z,15.16
2022-10-14T10:18:40.422Z,15.17
2022-10-14T10:21:26.037Z,15.21
2022-10-14T10:24:25.983Z,15.25
2022-10-14T10:27:21.504Z,15.17
2022-10-14T10:30:22.457Z,15.24
2022-10-14T10:33:03.231Z,15.30
2022-10-14T10:35:43.743Z,15.36
2022-10-14T10:38:24.156Z,15.45
2022-10-14T10:41:07.284Z,15.50
2022-10-14T10:43:50.963Z,15.56
2022-10-14T10:46:51.621Z,15.60
2022-10-14T10:49:36.413Z,15.64
2022-10-14T10:52:17.361Z,15.80
2022-10-14T10:54:57.332Z,15.86
2022-10-14T10:57:40.341Z,15.87
2022-10-14T11:00:14.883Z,15.76
2022-10-14T11:03:11.932Z,15.85
2022-10-14T11:05:58.693Z,15.83
2022-10-14T11:08:50.541Z,15.75
2022-10-14T11:11:37.443Z,15.88
2022-10-14T11:14:17.432Z,15.84
2022-10-14T11:16:56.874Z,15.76
2022-10-14T11:19:33.644Z,15.75
2022-10-14T11:22:12.072Z,15.75
2022-10-14T11:24:48.293Z,15.76
2022-10-14T11:27:24.832Z,15.76
2022-10-14T11:30:13.890Z,15.70
2022-10-14T11:32:57.832Z,15.67
2022-10-14T11:35:40.356Z,15.63
2022-10-14T11:38:37.142Z,15.66
2022-10-14T11:41:13.730Z,15.70
2022-10-14T11:43:51.622Z,15.67
2022-10-14T11:46:22.783Z,15.68
2022-10-14T11:48:55.445Z,15.70
2022-10-14T11:51:35.563Z,15.71
2022-10-14T11:54:07.222Z,15.69
2022-10-14T11:56:42.679Z,15.63
2022-10-14T11:59:22.630Z,15.80
2022-10-14T12:01:54.996Z,15.82
2022-10-14T12:04:30.284Z,15.79
2022-10-14T12:07:05.439Z,15.91
2022-10-14T12:09:40.506Z,15.99
2022-10-14T12:12:13.682Z,16.07
2022-10-14T12:14:46.412Z,16.13
2022-10-14T12:17:22.534Z,16.07
2022-10-14T12:19:52.822Z,16.05
2022-10-14T12:22:27.230Z,16.00
2022-10-14T12:24:57.793Z,15.93
2022-10-14T12:27:29.059Z,15.91
2022-10-14T12:29:59.057Z,15.87
2022-10-14T12:32:28.490Z,15.76
2022-10-14T12:34:58.833Z,15.71
2022-10-14T12:37:50.504Z,15.72
2022-10-14T12:40:31.904Z,15.71
2022-10-14T12:43:04.951Z,15.70
2022-10-14T12:45:36.557Z,15.70
2022-10-14T12:48:16.901Z,15.67
2022-10-14T12:50:46.535Z,15.71
2022-10-14T12:53:25.395Z,15.69
2022-10-14T12:55:55.609Z,15.68
2022-10-14T12:58:28.911Z,15.61
2022-10-14T13:01:01.562Z,15.62
2022-10-14T13:03:35.919Z,15.57
2022-10-14T13:06:30.143Z,15.53
2022-10-14T13:09:18.593Z,15.49
2022-10-14T13:12:18.533Z,15.40
2022-10-14T13:14:59.923Z,15.34
2022-10-14T13:17:46.343Z,15.31
2022-10-14T13:20:37.050Z,15.26
2022-10-14T13:23:28.900Z,15.24
2022-10-14T13:26:09.939Z,15.18
2022-10-14T13:28:44.380Z,15.07
2022-10-14T13:31:20.084Z,15.09
2022-10-14T13:33:55.480Z,15.08
2022-10-14T13:36:31.272Z,15.01
2022-10-14T13:39:02.852Z,15.05
2022-10-14T13:41:34.897Z,15.02
2022-10-14T13:44:05.511Z,14.96
2022-10-14T13:46:38.514Z,14.97
2022-10-14T13:51:53.395Z,14.92
2022-10-14T13:54:25.106Z,14.87
2022-10-14T13:57:38.165Z,14.83
2022-10-14T14:00:33.169Z,14.72
2022-10-14T14:02:51.827Z,14.67
2022-10-14T14:08:34.808Z,14.67
2022-10-14T14:11:14.964Z,14.66
2022-10-14T14:13:55.877Z,14.62
2022-10-14T14:16:33.128Z,14.62
2022-10-14T14:19:10.154Z,14.62
2022-10-14T14:21:39.875Z,14.56
2022-10-14T14:24:18.696Z,14.56
2022-10-14T14:26:56.419Z,14.56
2022-10-14T14:29:29.668Z,14.57
2022-10-14T14:32:07.165Z,14.59
2022-10-14T14:34:39.881Z,14.61
2022-10-14T14:40:16.330Z,14.63
2022-10-14T14:42:47.507Z,14.63
2022-10-14T14:45:19.837Z,14.64
2022-10-14T14:47:54.700Z,14.59
2022-10-14T14:50:31.987Z,14.62
2022-10-14T14:53:04.336Z,14.61
2022-10-14T14:55:43.987Z,14.58
2022-10-14T14:58:22.255Z,14.55
2022-10-14T15:00:51.837Z,14.54
2022-10-14T15:03:22.071Z,14.52
2022-10-14T15:05:52.849Z,14.48
2022-10-14T15:08:25.257Z,14.42
2022-10-14T15:10:58.516Z,14.44
2022-10-14T15:13:46.313Z,14.40
2022-10-14T15:16:15.014Z,14.38
2022-10-14T15:18:44.994Z,14.40
2022-10-14T15:21:20.458Z,14.39
2022-10-14T15:24:03.532Z,14.39
2022-10-14T15:26:36.825Z,14.32
2022-10-14T15:29:15.159Z,14.30
2022-10-14T15:31:46.502Z,14.32
2022-10-14T15:34:24.142Z,14.30
2022-10-14T15:36:54.331Z,14.26
2022-10-14T15:39:23.414Z,14.27
2022-10-14T15:41:52.503Z,14.17
2022-10-14T15:44:21.327Z,14.21
2022-10-14T15:47:01.384Z,14.19
2022-10-14T15:49:34.273Z,14.20
2022-10-14T15:52:02.966Z,14.21
2022-10-14T15:54:31.658Z,14.17
2022-10-14T15:57:01.435Z,14.18
2022-10-14T15:59:30.178Z,14.19
2022-10-14T16:01:59.163Z,14.11
2022-10-14T16:04:28.157Z,14.15
2022-10-14T16:06:58.533Z,14.13
2022-10-14T16:09:29.076Z,14.09
2022-10-14T16:12:00.602Z,14.08
2022-10-14T16:14:29.343Z,14.06
2022-10-14T16:16:59.183Z,14.07
2022-10-14T16:19:27.874Z,13.98
2022-10-14T16:21:58.059Z,14.06
2022-10-14T16:24:27.363Z,14.06
2022-10-14T16:26:56.093Z,14.04
2022-10-14T16:29:24.834Z,14.00
2022-10-14T16:31:54.561Z,14.04
2022-10-14T16:34:24.724Z,14.01
2022-10-14T16:36:53.375Z,14.01
2022-10-14T16:39:23.452Z,14.02
2022-10-14T16:41:52.543Z,14.02
2022-10-14T16:44:27.689Z,13.96
2022-10-14T16:47:07.272Z,14.01
2022-10-14T16:49:35.931Z,14.01
2022-10-14T16:52:05.906Z,13.99
2022-10-14T16:54:36.116Z,13.99
2022-10-14T16:57:05.704Z,13.98
2022-10-14T16:59:34.303Z,13.97
2022-10-14T17:02:03.093Z,13.93
2022-10-14T17:04:31.813Z,13.89
2022-10-14T17:07:07.385Z,13.79
2022-10-14T17:09:39.776Z,13.81
2022-10-14T17:12:13.861Z,13.81
2022-10-14T17:14:43.293Z,13.80
2022-10-14T17:17:12.676Z,13.82
2022-10-14T17:19:43.049Z,13.81
2022-10-14T17:22:11.767Z,13.81
2022-10-14T17:24:42.162Z,13.78
2022-10-14T17:27:11.133Z,13.77
2022-10-14T17:29:39.852Z,13.76
2022-10-14T17:32:08.733Z,13.75
2022-10-14T17:34:37.485Z,13.74
2022-10-14T17:39:38.643Z,13.68
2022-10-14T17:42:08.982Z,13.67
2022-10-14T17:44:43.403Z,13.68
2022-10-14T17:47:12.796Z,13.67
2022-10-14T17:49:41.365Z,13.65
2022-10-14T17:52:09.874Z,13.65
2022-10-14T17:54:38.569Z,13.64
2022-10-14T17:57:08.974Z,13.67
2022-10-14T17:59:37.606Z,13.68
2022-10-14T18:02:06.296Z,13.69
2022-10-14T18:04:35.149Z,13.67
2022-10-14T18:07:03.792Z,13.67
2022-10-14T18:09:32.347Z,13.64
2022-10-14T18:12:08.689Z,13.64
2022-10-14T18:14:41.039Z,13.64
2022-10-14T18:17:12.528Z,13.64
2022-10-14T18:19:42.171Z,13.64
2022-10-14T18:22:11.719Z,13.65
2022-10-14T18:24:40.401Z,13.65
2022-10-14T18:27:08.959Z,13.64
2022-10-14T18:29:39.113Z,13.64
2022-10-14T18:32:07.755Z,13.55
2022-10-14T18:34:36.727Z,13.63
2022-10-14T18:37:05.339Z,13.61
2022-10-14T18:39:34.013Z,13.61
2022-10-14T18:42:02.672Z,13.49
2022-10-14T18:44:31.335Z,13.56
2022-10-14T18:47:01.332Z,13.55
2022-10-14T18:49:30.114Z,13.58
2022-10-14T18:51:58.713Z,13.60
2022-10-14T18:54:28.626Z,13.59
2022-10-14T18:56:58.715Z,13.61
2022-10-14T18:59:29.557Z,13.61
2022-10-14T19:01:58.299Z,13.59
2022-10-14T19:04:28.642Z,13.59
2022-10-14T19:06:57.733Z,13.59
2022-10-14T19:09:30.035Z,13.51
2022-10-14T19:12:00.145Z,13.53
2022-10-14T19:14:32.165Z,13.53
2022-10-14T19:17:00.889Z,13.56
2022-10-14T19:19:30.977Z,13.54
2022-10-14T19:22:01.306Z,13.50
2022-10-14T19:24:31.465Z,13.54
2022-10-14T19:27:00.127Z,13.52
2022-10-14T19:29:29.356Z,13.51
2022-10-14T19:31:59.605Z,13.47
2022-10-14T19:34:28.335Z,13.52
2022-10-14T19:37:00.420Z,13.51
2022-10-14T19:39:29.093Z,13.51
2022-10-14T19:41:57.986Z,13.50
2022-10-14T19:44:26.796Z,13.50
2022-10-14T19:46:55.626Z,13.49
2022-10-14T19:49:24.326Z,13.50
2022-10-14T19:51:52.976Z,13.47
2022-10-14T19:54:22.981Z,13.44
2022-10-14T19:56:51.654Z,13.43
2022-10-14T19:59:20.562Z,13.41
2022-10-14T20:01:49.459Z,13.39
2022-10-14T20:04:20.843Z,13.38
2022-10-14T20:06:51.553Z,13.37
2022-10-14T20:09:20.333Z,13.37
2022-10-14T20:11:50.454Z,13.39
2022-10-14T20:14:19.281Z,13.41
2022-10-14T20:16:51.001Z,13.37
2022-10-14T20:19:22.644Z,13.28
2022-10-14T20:21:51.205Z,13.36
2022-10-14T20:24:19.803Z,13.34
2022-10-14T20:26:49.822Z,13.37
2022-10-14T20:29:18.475Z,13.37
2022-10-14T20:31:47.103Z,13.35
2022-10-14T20:34:15.911Z,13.36
2022-10-14T20:36:44.597Z,13.35
2022-10-14T20:39:13.351Z,13.33
2022-10-14T20:41:42.044Z,13.33
2022-10-14T20:44:12.173Z,13.29
2022-10-14T20:46:41.013Z,13.26
2022-10-14T20:49:10.199Z,13.28
2022-10-14T20:51:39.233Z,13.15
2022-10-14T20:54:10.995Z,13.27
2022-10-14T20:56:40.745Z,13.24
2022-10-14T20:59:13.633Z,13.24
2022-10-14T21:01:42.468Z,13.20
2022-10-14T21:04:11.205Z,13.22
2022-10-14T21:06:40.066Z,13.19
2022-10-14T21:09:08.834Z,13.20
2022-10-14T21:11:37.504Z,13.20
2022-10-14T21:14:06.094Z,13.20
2022-10-14T21:16:40.183Z,13.15
2022-10-14T21:19:11.235Z,13.10
2022-10-14T21:21:42.944Z,13.06
2022-10-14T21:24:15.034Z,13.06
2022-10-14T21:26:43.815Z,13.08
2022-10-14T21:29:12.501Z,13.05
2022-10-14T21:31:42.591Z,13.05
2022-10-14T21:34:12.538Z,13.03
2022-10-14T21:36:41.694Z,13.01
2022-10-14T21:39:13.034Z,13.01
2022-10-14T21:41:42.553Z,13.00
2022-10-14T21:44:15.804Z,13.01
2022-10-14T21:46:45.896Z,12.97
2022-10-14T21:49:14.949Z,12.96
2022-10-14T21:51:43.713Z,12.89
2022-10-14T21:54:12.955Z,12.91
2022-10-14T21:56:41.696Z,12.89
2022-10-14T21:59:14.446Z,12.87
2022-10-14T22:01:43.556Z,12.90
2022-10-14T22:04:13.615Z,12.91
2022-10-14T22:06:42.360Z,12.90
2022-10-14T22:09:10.993Z,12.66
2022-10-14T22:11:42.854Z,12.98
2022-10-14T22:14:15.062Z,13.00
2022-10-14T22:16:43.955Z,13.02
2022-10-14T22:19:14.753Z,13.02
2022-10-14T22:21:45.214Z,13.04
2022-10-14T22:24:14.583Z,13.03
2022-10-14T22:26:43.267Z,13.01
2022-10-14T22:29:15.243Z,13.03
2022-10-14T22:31:43.906Z,13.02
2022-10-14T22:34:16.161Z,12.96
2022-10-14T22:36:45.747Z,12.91
2022-10-14T22:39:15.435Z,13.02
2022-10-14T22:41:44.069Z,13.00
2022-10-14T22:44:12.904Z,12.98
2022-10-14T22:46:42.099Z,12.93
2022-10-14T22:49:10.985Z,12.85
2022-10-14T22:51:41.566Z,12.68
2022-10-14T22:54:10.874Z,12.76
2022-10-14T22:56:39.945Z,12.78
2022-10-14T22:59:11.308Z,12.74
2022-10-14T23:01:41.103Z,12.71
2022-10-14T23:04:09.723Z,12.72
2022-10-14T23:06:38.403Z,12.73
2022-10-14T23:09:08.535Z,12.72
2022-10-14T23:11:37.262Z,12.71
2022-10-14T23:14:07.194Z,12.66
2022-10-14T23:16:36.885Z,12.58
2022-10-14T23:19:05.603Z,12.52
2022-10-14T23:21:36.545Z,12.47
2022-10-14T23:24:08.821Z,12.43
2022-10-14T23:26:37.730Z,12.43
2022-10-14T23:29:09.397Z,12.16
2022-10-14T23:31:39.869Z,12.43
2022-10-14T23:34:12.173Z,12.42
2022-10-14T23:36:41.630Z,12.45
2022-10-14T23:39:12.833Z,12.49
2022-10-14T23:41:41.493Z,12.47
2022-10-14T23:44:13.365Z,12.46
2022-10-14T23:46:42.105Z,12.49
2022-10-14T23:49:26.572Z,12.51
2022-10-14T23:51:56.943Z,12.50
2022-10-14T23:54:27.214Z,12.44
2022-10-14T23:56:55.952Z,12.55
2022-10-14T23:59:24.687Z,12.54
